Date,TemperatureHighF,TemperatureAvgF,TemperatureLowF,DewpointHighF,DewpointAvgF,DewpointLowF,HumidityHigh,HumidityAvg,HumidityLow,PressureMaxIn,PressureMinIn,WindSpeedMaxMPH,WindSpeedAvgMPH,GustSpeedMaxMPH,PrecipitationSumIn
2013-9-1,94.1,83.4,76.3,78.4,74.5,70.5,94,76,47,29.91,29.62,9,3,15,0.00
2013-9-2,93.6,84.4,79.5,79.2,75.9,74.1,88,76,56,29.81,29.60,8,4,16,0.02
2013-9-3,92.1,80.7,72.3,77.4,73.1,65.8,88,78,57,29.93,29.59,9,3,13,0.01
2013-9-4,91.2,79.4,69.3,74.5,71.0,66.9,94,77,51,29.99,29.68,5,2,12,0.00
2013-9-5,92.3,80.1,72.5,80.1,74.1,70.1,96,83,62,30.01,29.77,6,1,10,0.00
2013-9-6,92.7,77.8,67.8,74.8,69.3,64.0,93,77,45,29.99,29.79,7,3,14,0.07
2013-9-7,88.2,74.7,63.9,66.9,62.5,57.8,90,69,38,29.99,29.78,7,2,12,0.00
2013-9-8,90.3,75.5,61.2,72.5,66.6,59.1,95,76,47,29.88,29.74,6,1,11,0.00
2013-9-9,92.3,78.5,67.8,74.0,69.8,65.9,95,77,52,30.06,29.76,8,2,15,0.00
2013-9-10,93.9,78.9,68.0,74.5,69.4,65.5,95,75,46,30.18,29.92,8,2,14,0.00
2013-9-11,91.8,77.1,68.4,74.8,69.0,66.5,95,78,47,30.11,29.92,7,1,11,0.00
2013-9-12,93.6,78.6,66.2,74.7,68.8,64.4,95,74,45,29.95,29.63,7,2,14,0.00
2013-9-13,92.5,80.5,73.0,74.1,69.7,64.1,85,71,46,29.75,29.52,7,2,11,0.00
2013-9-14,83.5,74.0,66.7,65.3,63.4,58.5,89,71,53,29.99,29.57,8,3,15,0.00
2013-9-15,88.0,75.0,63.9,70.6,66.4,61.5,93,76,52,30.16,29.87,10,3,17,0.00
2013-9-16,93.2,76.7,66.9,77.3,70.2,65.2,95,82,49,30.05,29.85,8,1,14,0.08
2013-9-17,83.3,71.4,61.7,66.7,61.0,54.4,88,71,45,30.14,29.90,10,4,18,0.00
2013-9-18,82.6,66.6,55.8,63.3,57.2,52.0,87,73,50,30.13,29.95,7,3,13,0.00
2013-9-19,84.0,69.1,57.7,61.1,56.8,52.4,92,68,38,30.07,29.91,6,2,11,0.00
2013-9-20,73.9,68.2,60.1,65.2,61.1,56.2,90,79,63,29.99,29.81,8,1,11,0.00
2013-9-21,84.9,73.5,67.8,74.8,69.2,64.4,95,87,66,29.84,29.51,5,2,11,0.50
2013-9-22,78.1,73.0,68.2,72.7,68.7,63.5,94,86,74,29.73,29.44,10,3,16,0.44
2013-9-23,78.6,67.8,57.6,63.5,56.9,53.7,90,70,43,30.01,29.67,9,3,14,0.01
2013-9-24,80.6,65.3,52.3,58.5,55.0,49.5,91,72,45,30.06,29.73,8,1,12,0.00
2013-9-25,78.1,65.7,53.4,63.1,58.3,51.6,95,79,57,29.83,29.64,9,2,14,0.00
2013-9-26,81.7,70.4,62.8,63.0,60.3,58.6,91,72,48,29.86,29.66,9,3,18,0.04
2013-9-27,79.9,67.6,59.5,62.8,57.7,53.8,93,73,45,29.99,29.78,10,4,19,0.00
2013-9-28,79.5,69.3,62.1,61.6,58.7,56.4,85,70,50,30.05,29.89,11,4,15,0.00
2013-9-29,80.2,66.8,57.7,63.0,59.0,56.0,95,78,49,30.00,29.69,8,3,14,0.00
2013-9-30,81.9,67.4,56.1,59.0,55.1,49.8,94,69,35,30.00,29.80,7,2,12,0.00